createdAt,value
2024-01-27T00:00:39.260Z,100.00
2024-01-27T00:03:07.061Z,100.00
2024-01-27T00:05:34.645Z,100.00
2024-01-27T00:08:02.184Z,100.00
2024-01-27T00:10:29.939Z,100.00
2024-01-27T00:12:59.040Z,100.00
2024-01-27T00:15:26.545Z,100.00
2024-01-27T00:17:54.344Z,100.00
2024-01-27T00:20:26.180Z,100.00
2024-01-27T00:22:53.915Z,100.00
2024-01-27T00:25:21.494Z,100.00
2024-01-27T00:27:49.011Z,100.00
2024-01-27T00:30:16.812Z,100.00
2024-01-27T00:32:47.518Z,100.00
2024-01-27T00:35:15.940Z,100.00
2024-01-27T00:37:43.544Z,100.00
2024-01-27T00:40:13.107Z,100.00
2024-01-27T00:42:40.094Z,100.00
2024-01-27T00:45:08.002Z,100.00
2024-01-27T00:47:35.810Z,100.00
2024-01-27T00:50:02.942Z,100.00
2024-01-27T00:52:32.708Z,100.00
2024-01-27T00:55:00.218Z,100.00
2024-01-27T00:57:29.230Z,100.00
2024-01-27T00:59:56.534Z,100.00
2024-01-27T01:02:23.997Z,100.00
2024-01-27T01:04:51.537Z,100.00
2024-01-27T01:07:18.702Z,100.00
2024-01-27T01:09:47.061Z,100.00
2024-01-27T01:12:16.112Z,100.00
2024-01-27T01:14:45.151Z,100.00
2024-01-27T01:17:12.279Z,100.00
2024-01-27T01:19:40.171Z,100.00
2024-01-27T01:22:11.013Z,100.00
2024-01-27T01:24:39.386Z,100.00
2024-01-27T01:27:07.137Z,100.00
2024-01-27T01:29:36.285Z,100.00
2024-01-27T01:32:04.049Z,100.00
2024-01-27T01:34:31.413Z,100.00
2024-01-27T01:36:59.866Z,100.00
2024-01-27T01:39:26.838Z,100.00
2024-01-27T01:41:53.929Z,100.00
2024-01-27T01:44:22.368Z,100.00
2024-01-27T01:46:49.407Z,100.00
2024-01-27T01:49:18.933Z,100.00
2024-01-27T01:51:46.309Z,100.00
2024-01-27T01:54:13.610Z,100.00
2024-01-27T01:56:40.717Z,100.00
2024-01-27T01:59:14.096Z,100.00
2024-01-27T02:01:46.183Z,100.00
2024-01-27T02:04:13.808Z,100.00
2024-01-27T02:06:41.464Z,100.00
2024-01-27T02:09:08.523Z,100.00
2024-01-27T02:11:36.465Z,100.00
2024-01-27T02:14:03.484Z,98.99
2024-01-27T02:16:31.976Z,98.93
2024-01-27T02:19:00.283Z,98.94
2024-01-27T02:21:27.430Z,98.24
2024-01-27T02:23:55.277Z,97.83
2024-01-27T02:26:22.576Z,98.29
2024-01-27T02:28:50.018Z,97.98
2024-01-27T02:31:16.943Z,97.93
2024-01-27T02:33:45.242Z,98.11
2024-01-27T02:36:12.416Z,98.19
2024-01-27T02:38:39.591Z,98.05
2024-01-27T02:41:07.338Z,98.95
2024-01-27T02:43:34.785Z,99.11
2024-01-27T02:46:02.857Z,98.70
2024-01-27T02:48:31.741Z,99.56
2024-01-27T02:50:58.836Z,100.00
2024-01-27T02:53:26.266Z,100.00
2024-01-27T02:55:53.477Z,100.00
2024-01-27T02:58:20.944Z,100.00
2024-01-27T03:00:47.871Z,100.00
2024-01-27T03:03:16.467Z,100.00
2024-01-27T03:05:44.221Z,100.00
2024-01-27T03:08:11.433Z,100.00
2024-01-27T03:10:40.229Z,100.00
2024-01-27T03:13:07.810Z,100.00
2024-01-27T03:15:34.924Z,100.00
2024-01-27T03:18:03.144Z,100.00
2024-01-27T03:20:32.217Z,100.00
2024-01-27T03:23:00.771Z,100.00
2024-01-27T03:25:28.139Z,100.00
2024-01-27T03:27:56.771Z,100.00
2024-01-27T03:30:24.294Z,100.00
2024-01-27T03:32:51.537Z,100.00
2024-01-27T03:35:19.144Z,100.00
2024-01-27T03:37:46.523Z,100.00
2024-01-27T03:40:14.370Z,100.00
2024-01-27T03:42:41.283Z,100.00
2024-01-27T03:45:09.095Z,100.00
2024-01-27T03:47:36.409Z,100.00
2024-01-27T03:50:04.089Z,100.00
2024-01-27T03:52:30.999Z,100.00
2024-01-27T03:55:00.647Z,100.00
2024-01-27T03:57:28.139Z,100.00
2024-01-27T03:59:55.124Z,100.00
2024-01-27T04:02:22.942Z,100.00
2024-01-27T04:04:52.063Z,100.00
2024-01-27T04:07:19.526Z,100.00
2024-01-27T04:09:46.601Z,100.00
2024-01-27T04:12:14.483Z,100.00
2024-01-27T04:14:41.773Z,100.00
2024-01-27T04:17:08.865Z,100.00
2024-01-27T04:19:38.045Z,100.00
2024-01-27T04:22:05.589Z,100.00
2024-01-27T04:24:32.659Z,100.00
2024-01-27T04:27:00.768Z,100.00
2024-01-27T04:29:27.927Z,100.00
2024-01-27T04:31:55.316Z,100.00
2024-01-27T04:34:22.677Z,100.00
2024-01-27T04:36:50.564Z,100.00
2024-01-27T04:39:18.065Z,100.00
2024-01-27T04:41:45.398Z,100.00
2024-01-27T04:44:13.922Z,100.00
2024-01-27T04:46:41.103Z,100.00
2024-01-27T04:49:08.445Z,100.00
2024-01-27T04:51:35.607Z,100.00
2024-01-27T04:54:11.109Z,100.00
2024-01-27T04:56:38.322Z,100.00
2024-01-27T04:59:05.266Z,100.00
2024-01-27T05:01:33.214Z,100.00
2024-01-27T05:04:00.994Z,100.00
2024-01-27T05:06:28.147Z,100.00
2024-01-27T05:08:55.120Z,100.00
2024-01-27T05:11:33.067Z,100.00
2024-01-27T05:14:03.332Z,100.00
2024-01-27T05:16:30.884Z,99.29
2024-01-27T05:18:58.019Z,98.21
2024-01-27T05:21:25.657Z,96.53
2024-01-27T05:23:53.854Z,95.17
2024-01-27T05:26:22.423Z,95.17
2024-01-27T05:28:49.431Z,94.80
2024-01-27T05:31:18.115Z,95.17
2024-01-27T05:33:45.217Z,94.14
2024-01-27T05:36:15.721Z,93.74
2024-01-27T05:38:43.425Z,92.19
2024-01-27T05:41:10.566Z,90.82
2024-01-27T05:43:38.806Z,90.00
2024-01-27T05:46:10.179Z,90.13
2024-01-27T05:48:37.260Z,90.44
2024-01-27T05:51:04.518Z,90.88
2024-01-27T05:53:31.790Z,91.71
2024-01-27T05:55:58.766Z,91.44
2024-01-27T05:58:26.275Z,91.43
2024-01-27T06:00:54.989Z,90.95
2024-01-27T06:03:22.852Z,92.34
2024-01-27T06:05:50.474Z,92.99
2024-01-27T06:08:19.486Z,93.56
2024-01-27T06:10:48.178Z,93.92
2024-01-27T06:13:15.162Z,94.82
2024-01-27T06:15:42.715Z,95.65
2024-01-27T06:18:11.453Z,96.41
2024-01-27T06:20:41.373Z,96.99
2024-01-27T06:23:09.670Z,97.63
2024-01-27T06:25:36.960Z,98.33
2024-01-27T06:28:04.767Z,99.01
2024-01-27T06:30:31.740Z,98.42
2024-01-27T06:32:59.669Z,98.07
2024-01-27T06:35:27.166Z,98.08
2024-01-27T06:37:56.188Z,97.51
2024-01-27T06:40:23.901Z,96.98
2024-01-27T06:42:53.520Z,96.84
2024-01-27T06:45:20.570Z,97.22
2024-01-27T06:47:48.336Z,97.21
2024-01-27T06:50:16.384Z,96.33
2024-01-27T06:52:44.941Z,96.40
2024-01-27T06:55:12.269Z,96.63
2024-01-27T06:57:42.003Z,96.87
2024-01-27T07:00:09.730Z,97.25
2024-01-27T07:02:36.959Z,97.54
2024-01-27T07:05:04.318Z,97.60
2024-01-27T07:07:32.950Z,97.28
2024-01-27T07:10:00.327Z,97.82
2024-01-27T07:12:27.452Z,98.22
2024-01-27T07:14:57.960Z,98.21
2024-01-27T07:17:25.613Z,98.46
2024-01-27T07:19:53.647Z,98.38
2024-01-27T07:22:23.974Z,98.39
2024-01-27T07:24:53.854Z,98.95
2024-01-27T07:27:23.673Z,98.61
2024-01-27T07:29:50.728Z,98.40
2024-01-27T07:32:18.030Z,98.27
2024-01-27T07:34:46.960Z,98.06
2024-01-27T07:37:14.053Z,97.81
2024-01-27T07:39:41.740Z,97.65
2024-01-27T07:42:11.436Z,96.90
2024-01-27T07:44:38.433Z,96.89
2024-01-27T07:47:05.630Z,96.37
2024-01-27T07:49:33.149Z,96.03
2024-01-27T07:52:07.406Z,95.49
2024-01-27T07:54:40.093Z,95.96
2024-01-27T07:57:08.256Z,95.27
2024-01-27T07:59:35.896Z,95.42
2024-01-27T08:02:03.855Z,95.24
2024-01-27T08:04:31.242Z,94.30
2024-01-27T08:06:58.263Z,94.60
2024-01-27T08:09:26.810Z,93.74
2024-01-27T08:11:54.507Z,93.98
2024-01-27T08:14:22.302Z,93.36
2024-01-27T08:16:49.365Z,93.68
2024-01-27T08:19:22.163Z,93.04
2024-01-27T08:21:49.374Z,93.18
2024-01-27T08:24:16.828Z,92.71
2024-01-27T08:26:43.903Z,91.94
2024-01-27T08:29:11.120Z,91.82
2024-01-27T08:31:39.943Z,90.80
2024-01-27T08:34:08.035Z,91.58
2024-01-27T08:36:35.889Z,90.71
2024-01-27T08:39:04.265Z,89.46
2024-01-27T08:41:31.263Z,88.77
2024-01-27T08:43:58.862Z,88.88
2024-01-27T08:46:26.086Z,88.29
2024-01-27T08:48:53.048Z,88.43
2024-01-27T08:51:20.101Z,85.88
2024-01-27T08:53:49.954Z,86.21
2024-01-27T08:56:18.857Z,85.79
2024-01-27T08:58:53.875Z,85.13
2024-01-27T09:01:21.596Z,85.48
2024-01-27T09:03:48.566Z,84.75
2024-01-27T09:06:16.041Z,84.25
2024-01-27T09:08:43.517Z,82.68
2024-01-27T09:11:10.490Z,83.37
2024-01-27T09:13:40.364Z,82.86
2024-01-27T09:16:08.597Z,82.47
2024-01-27T09:18:35.773Z,83.45
2024-01-27T09:21:03.023Z,82.92
2024-01-27T09:23:30.291Z,82.18
2024-01-27T09:25:57.201Z,81.18
2024-01-27T09:28:25.030Z,81.37
2024-01-27T09:30:52.504Z,80.82
2024-01-27T09:33:21.157Z,80.48
2024-01-27T09:35:48.198Z,80.57
2024-01-27T09:38:15.620Z,80.02
2024-01-27T09:40:43.634Z,79.03
2024-01-27T09:43:14.368Z,78.45
2024-01-27T09:45:43.745Z,77.85
2024-01-27T09:48:13.270Z,77.66
2024-01-27T09:50:42.527Z,76.89
2024-01-27T09:53:11.183Z,77.66
2024-01-27T09:55:38.252Z,76.59
2024-01-27T09:58:06.620Z,74.98
2024-01-27T10:00:37.212Z,74.67
2024-01-27T10:03:07.223Z,74.35
2024-01-27T10:05:35.138Z,72.55
2024-01-27T10:08:02.151Z,73.83
2024-01-27T10:10:29.375Z,73.86
2024-01-27T10:12:59.840Z,73.70
2024-01-27T10:15:28.846Z,73.10
2024-01-27T10:18:09.752Z,73.38
2024-01-27T10:20:37.065Z,69.95
2024-01-27T10:23:14.155Z,71.16
2024-01-27T10:25:42.195Z,72.23
2024-01-27T10:28:13.703Z,70.14
2024-01-27T10:30:40.730Z,69.27
2024-01-27T10:33:11.970Z,70.58
2024-01-27T10:35:39.539Z,70.09
2024-01-27T10:38:08.403Z,68.96
2024-01-27T10:40:37.058Z,70.08
2024-01-27T10:43:05.311Z,69.16
2024-01-27T10:45:39.028Z,69.19
2024-01-27T10:48:08.988Z,67.21
2024-01-27T10:50:42.765Z,66.08
2024-01-27T10:53:24.357Z,66.15
2024-01-27T10:55:56.302Z,66.01
2024-01-27T10:58:24.748Z,66.62
2024-01-27T11:00:54.528Z,66.15
2024-01-27T11:03:26.865Z,65.21
2024-01-27T11:05:57.670Z,65.75
2024-01-27T11:08:29.178Z,65.40
2024-01-27T11:10:57.342Z,65.81
2024-01-27T11:13:25.776Z,65.63
2024-01-27T11:15:55.345Z,64.30
2024-01-27T11:18:23.325Z,63.17
2024-01-27T11:20:57.624Z,63.50
2024-01-27T11:23:33.446Z,62.59
2024-01-27T11:26:07.845Z,62.84
2024-01-27T11:28:36.837Z,63.29
2024-01-27T11:31:08.548Z,63.40
2024-01-27T11:33:44.546Z,65.00
2024-01-27T11:36:21.430Z,65.84
2024-01-27T11:38:48.995Z,64.30
2024-01-27T11:41:26.603Z,63.68
2024-01-27T11:43:57.709Z,64.90
2024-01-27T11:46:25.081Z,64.31
2024-01-27T11:48:52.193Z,64.32
2024-01-27T11:51:20.998Z,65.55
2024-01-27T11:53:49.951Z,65.67
2024-01-27T11:56:16.927Z,65.30
2024-01-27T11:58:51.416Z,63.02
2024-01-27T12:01:20.253Z,63.69
2024-01-27T12:03:49.972Z,64.59
2024-01-27T12:06:17.363Z,64.96
2024-01-27T12:08:49.906Z,64.75
2024-01-27T12:11:22.354Z,65.04
2024-01-27T12:13:53.281Z,63.36
2024-01-27T12:16:23.166Z,64.41
2024-01-27T12:18:53.928Z,65.00
2024-01-27T12:21:21.565Z,66.48
2024-01-27T12:23:53.281Z,66.05
2024-01-27T12:26:31.657Z,66.92
2024-01-27T12:28:59.846Z,66.77
2024-01-27T12:31:28.297Z,66.77
2024-01-27T12:33:58.235Z,66.94
2024-01-27T12:36:28.280Z,67.21
2024-01-27T12:38:56.895Z,67.77
2024-01-27T12:41:30.421Z,68.44
2024-01-27T12:43:57.947Z,68.16
2024-01-27T12:46:29.302Z,68.42
2024-01-27T12:48:58.407Z,69.27
2024-01-27T12:51:26.854Z,68.21
2024-01-27T12:53:53.892Z,66.82
2024-01-27T12:56:21.899Z,66.36
2024-01-27T12:58:49.566Z,66.01
2024-01-27T13:01:17.162Z,66.92
2024-01-27T13:03:45.908Z,65.60
2024-01-27T13:06:15.985Z,64.93
2024-01-27T13:08:43.787Z,65.14
2024-01-27T13:11:14.435Z,65.95
2024-01-27T13:13:42.580Z,67.42
2024-01-27T13:16:09.726Z,68.17
2024-01-27T13:18:38.087Z,68.23
2024-01-27T13:21:07.101Z,68.35
2024-01-27T13:23:35.462Z,68.13
2024-01-27T13:26:14.059Z,68.18
2024-01-27T13:28:49.535Z,66.95
2024-01-27T13:31:17.739Z,67.76
2024-01-27T13:33:47.264Z,67.13
2024-01-27T13:36:14.697Z,67.51
2024-01-27T13:38:42.575Z,66.99
2024-01-27T13:41:11.252Z,67.28
2024-01-27T13:43:38.922Z,67.06
2024-01-27T13:46:06.379Z,67.84
2024-01-27T13:48:34.170Z,67.80
2024-01-27T13:51:01.705Z,68.36
2024-01-27T13:53:38.768Z,68.29
2024-01-27T13:56:13.759Z,68.47
2024-01-27T13:58:41.967Z,68.64
2024-01-27T14:01:09.861Z,70.11
2024-01-27T14:03:38.585Z,70.45
2024-01-27T14:06:08.745Z,69.98
2024-01-27T14:08:35.892Z,69.68
2024-01-27T14:11:03.688Z,68.98
2024-01-27T14:13:30.558Z,68.85
2024-01-27T14:15:59.130Z,68.92
2024-01-27T14:18:26.537Z,68.66
2024-01-27T14:20:54.195Z,69.14
2024-01-27T14:23:21.366Z,69.53
2024-01-27T14:25:49.147Z,69.36
2024-01-27T14:28:18.061Z,69.74
2024-01-27T14:30:46.127Z,70.59
2024-01-27T14:33:14.253Z,70.75
2024-01-27T14:35:41.528Z,71.41
2024-01-27T14:38:10.235Z,72.47
2024-01-27T14:40:38.271Z,72.51
2024-01-27T14:43:10.741Z,71.72
2024-01-27T14:45:38.211Z,71.87
2024-01-27T14:48:07.040Z,72.06
2024-01-27T14:50:34.169Z,72.65
2024-01-27T14:53:03.513Z,73.08
2024-01-27T14:55:33.786Z,72.86
2024-01-27T14:58:03.235Z,72.88
2024-01-27T15:00:30.587Z,73.33
2024-01-27T15:02:58.357Z,72.83
2024-01-27T15:05:27.054Z,72.35
2024-01-27T15:07:54.828Z,72.33
2024-01-27T15:10:24.015Z,73.25
2024-01-27T15:12:52.219Z,73.12
2024-01-27T15:15:19.457Z,73.30
2024-01-27T15:17:48.756Z,74.06
2024-01-27T15:20:16.826Z,74.06
2024-01-27T15:22:45.790Z,74.63
2024-01-27T15:25:15.986Z,75.68
2024-01-27T15:27:45.638Z,76.27
2024-01-27T15:30:15.994Z,76.71
2024-01-27T15:32:43.568Z,76.79
2024-01-27T15:35:11.255Z,76.63
2024-01-27T15:37:39.469Z,76.85
2024-01-27T15:40:10.711Z,76.66
2024-01-27T15:42:38.849Z,76.81
2024-01-27T15:45:07.093Z,77.23
2024-01-27T15:47:43.771Z,78.19
2024-01-27T15:50:14.640Z,78.60
2024-01-27T15:52:46.003Z,78.60
2024-01-27T15:55:13.901Z,78.74
2024-01-27T15:57:41.584Z,78.99
2024-01-27T16:00:12.213Z,78.87
2024-01-27T16:02:40.084Z,79.47
2024-01-27T16:05:09.037Z,78.96
2024-01-27T16:07:37.727Z,78.94
2024-01-27T16:10:05.389Z,78.94
2024-01-27T16:12:33.801Z,78.92
2024-01-27T16:15:01.435Z,79.30
2024-01-27T16:17:28.768Z,79.18
2024-01-27T16:19:57.498Z,79.48
2024-01-27T16:22:25.870Z,79.90
2024-01-27T16:24:56.362Z,80.35
2024-01-27T16:27:29.371Z,80.19
2024-01-27T16:29:58.258Z,80.01
2024-01-27T16:32:25.493Z,80.47
2024-01-27T16:34:53.908Z,80.33
2024-01-27T16:37:22.217Z,80.46
2024-01-27T16:39:51.321Z,80.29
2024-01-27T16:42:18.298Z,80.59
2024-01-27T16:44:47.894Z,80.51
2024-01-27T16:47:18.263Z,80.47
2024-01-27T16:49:45.909Z,80.69
2024-01-27T16:52:15.970Z,81.21
2024-01-27T16:54:45.647Z,81.69
2024-01-27T16:57:13.256Z,81.32
2024-01-27T16:59:42.042Z,81.99
2024-01-27T17:02:09.908Z,81.50
2024-01-27T17:04:40.721Z,81.36
2024-01-27T17:07:10.454Z,81.52
2024-01-27T17:09:39.005Z,81.46
2024-01-27T17:12:07.235Z,81.12
2024-01-27T17:14:34.683Z,81.21
2024-01-27T17:17:01.882Z,80.68
2024-01-27T17:19:30.372Z,80.37
2024-01-27T17:21:57.595Z,80.81
2024-01-27T17:24:26.283Z,81.13
2024-01-27T17:26:55.896Z,81.00
2024-01-27T17:29:22.946Z,81.10
2024-01-27T17:31:50.246Z,81.27
2024-01-27T17:34:20.957Z,81.32
2024-01-27T17:36:48.773Z,81.50
2024-01-27T17:39:17.177Z,81.50
2024-01-27T17:41:45.693Z,81.25
2024-01-27T17:44:13.874Z,80.58
2024-01-27T17:46:41.246Z,80.23
2024-01-27T17:49:09.158Z,80.66
2024-01-27T17:51:36.654Z,80.32
2024-01-27T17:54:05.084Z,80.60
2024-01-27T17:56:34.383Z,81.02
2024-01-27T17:59:02.230Z,81.22
2024-01-27T18:01:30.064Z,81.75
2024-01-27T18:03:57.491Z,81.70
2024-01-27T18:06:25.167Z,81.64
2024-01-27T18:08:52.529Z,81.81
2024-01-27T18:11:21.384Z,82.45
2024-01-27T18:13:50.117Z,82.73
2024-01-27T18:16:18.838Z,83.21
2024-01-27T18:18:46.551Z,83.57
2024-01-27T18:21:15.947Z,83.75
2024-01-27T18:23:46.812Z,84.17
2024-01-27T18:26:14.234Z,84.33
2024-01-27T18:28:42.117Z,84.39
2024-01-27T18:31:09.597Z,84.83
2024-01-27T18:33:36.997Z,84.78
2024-01-27T18:36:06.739Z,84.86
2024-01-27T18:38:33.918Z,84.66
2024-01-27T18:41:02.636Z,84.99
2024-01-27T18:43:29.993Z,85.26
2024-01-27T18:45:58.542Z,85.37
2024-01-27T18:48:28.995Z,85.73
2024-01-27T18:50:59.544Z,85.35
2024-01-27T18:53:27.499Z,85.75
2024-01-27T18:55:54.384Z,86.37
2024-01-27T18:58:23.206Z,86.69
2024-01-27T19:00:52.458Z,86.95
2024-01-27T19:03:20.156Z,86.60
2024-01-27T19:05:47.121Z,86.59
2024-01-27T19:08:14.414Z,87.14
2024-01-27T19:10:46.007Z,87.26
2024-01-27T19:13:15.791Z,86.99
2024-01-27T19:15:44.176Z,87.19
2024-01-27T19:18:11.450Z,87.67
2024-01-27T19:20:38.469Z,87.56
2024-01-27T19:23:08.476Z,87.91
2024-01-27T19:25:39.570Z,87.59
2024-01-27T19:28:07.115Z,87.87
2024-01-27T19:30:34.402Z,88.50
2024-01-27T19:33:01.737Z,88.59
2024-01-27T19:35:31.153Z,88.42
2024-01-27T19:38:01.403Z,88.42
2024-01-27T19:40:28.592Z,88.48
2024-01-27T19:42:56.020Z,88.96
2024-01-27T19:45:24.791Z,89.10
2024-01-27T19:47:53.804Z,88.77
2024-01-27T19:50:22.613Z,89.41
2024-01-27T19:52:50.929Z,89.15
2024-01-27T19:55:20.739Z,89.45
2024-01-27T19:57:48.851Z,89.39
2024-01-27T20:00:19.824Z,88.65
2024-01-27T20:02:55.249Z,88.92
2024-01-27T20:05:22.894Z,89.18
2024-01-27T20:07:50.170Z,89.32
2024-01-27T20:10:18.277Z,89.25
2024-01-27T20:12:47.121Z,89.37
2024-01-27T20:15:18.215Z,89.46
2024-01-27T20:17:48.543Z,89.65
2024-01-27T20:20:20.196Z,89.30
2024-01-27T20:22:48.177Z,89.70
2024-01-27T20:25:15.466Z,90.22
2024-01-27T20:27:42.576Z,90.36
2024-01-27T20:30:10.624Z,90.60
2024-01-27T20:32:41.809Z,90.30
2024-01-27T20:35:12.467Z,90.41
2024-01-27T20:37:40.108Z,90.66
2024-01-27T20:40:07.678Z,90.20
2024-01-27T20:42:34.787Z,90.27
2024-01-27T20:45:04.169Z,90.64
2024-01-27T20:47:31.263Z,91.04
2024-01-27T20:50:02.244Z,91.14
2024-01-27T20:52:30.519Z,90.68
2024-01-27T20:54:59.005Z,91.07
2024-01-27T20:57:27.560Z,90.40
2024-01-27T20:59:54.940Z,90.35
2024-01-27T21:02:22.989Z,90.73
2024-01-27T21:04:50.041Z,90.72
2024-01-27T21:07:19.269Z,90.93
2024-01-27T21:09:46.813Z,91.20
2024-01-27T21:12:14.809Z,91.58
2024-01-27T21:14:42.008Z,91.68
2024-01-27T21:17:09.406Z,91.69
2024-01-27T21:19:43.089Z,92.51
2024-01-27T21:22:11.087Z,93.11
2024-01-27T21:24:38.564Z,93.18
2024-01-27T21:27:06.130Z,93.35
2024-01-27T21:29:33.912Z,93.42
2024-01-27T21:32:01.308Z,93.86
2024-01-27T21:34:29.418Z,94.04
2024-01-27T21:36:57.800Z,94.07
2024-01-27T21:39:27.123Z,94.03
2024-01-27T21:41:58.721Z,94.68
2024-01-27T21:44:27.812Z,94.76
2024-01-27T21:46:55.828Z,94.98
2024-01-27T21:49:22.957Z,94.92
2024-01-27T21:51:51.350Z,95.41
2024-01-27T21:54:21.493Z,95.68
2024-01-27T21:56:49.929Z,95.60
2024-01-27T21:59:17.498Z,95.93
2024-01-27T22:01:45.741Z,96.17
2024-01-27T22:04:13.827Z,96.81
2024-01-27T22:06:41.457Z,96.63
2024-01-27T22:09:12.335Z,96.95
2024-01-27T22:11:44.486Z,97.27
2024-01-27T22:14:12.974Z,97.71
2024-01-27T22:16:40.151Z,97.93
2024-01-27T22:19:11.560Z,97.66
2024-01-27T22:21:40.112Z,98.25
2024-01-27T22:24:08.069Z,98.57
2024-01-27T22:26:39.808Z,98.50
2024-01-27T22:29:07.282Z,98.18
2024-01-27T22:31:34.672Z,98.43
2024-01-27T22:34:02.266Z,98.87
2024-01-27T22:36:29.819Z,98.98
2024-01-27T22:38:57.036Z,98.77
2024-01-27T22:41:28.250Z,98.53
2024-01-27T22:43:56.726Z,98.46
2024-01-27T22:46:25.676Z,98.78
2024-01-27T22:48:52.935Z,98.90
2024-01-27T22:51:21.043Z,99.62
2024-01-27T22:53:48.735Z,99.41
2024-01-27T22:56:16.165Z,99.21
2024-01-27T22:58:43.081Z,99.73
2024-01-27T23:01:12.117Z,99.32
2024-01-27T23:03:39.808Z,99.88
2024-01-27T23:06:07.707Z,99.74
2024-01-27T23:08:35.699Z,99.07
2024-01-27T23:11:03.156Z,99.16
2024-01-27T23:13:30.606Z,99.35
2024-01-27T23:15:58.322Z,98.65
2024-01-27T23:18:25.856Z,98.61
2024-01-27T23:20:53.429Z,98.81
2024-01-27T23:23:21.127Z,98.72
2024-01-27T23:25:49.723Z,99.08
2024-01-27T23:28:16.740Z,99.08
2024-01-27T23:30:46.432Z,99.66
2024-01-27T23:33:14.661Z,100.00
2024-01-27T23:35:42.600Z,100.00
2024-01-27T23:38:09.808Z,100.00
2024-01-27T23:40:36.739Z,100.00
2024-01-27T23:43:03.873Z,100.00
2024-01-27T23:45:32.112Z,100.00
2024-01-27T23:47:59.155Z,100.00
2024-01-27T23:50:26.905Z,100.00
2024-01-27T23:52:55.369Z,100.00
2024-01-27T23:55:22.800Z,100.00
2024-01-27T23:57:53.660Z,100.00
